createdAt,value
2023-04-06T00:00:18.207Z,23.42
2023-04-06T00:01:38.791Z,25.42
2023-04-06T00:02:59.255Z,22.40
2023-04-06T00:04:19.936Z,23.90
2023-04-06T00:05:40.608Z,22.30
2023-04-06T00:07:01.272Z,23.05
2023-04-06T00:08:21.786Z,22.60
2023-04-06T00:09:43.865Z,20.90
2023-04-06T00:11:04.790Z,20.45
2023-04-06T00:12:25.446Z,20.77
2023-04-06T00:13:46.173Z,19.73
2023-04-06T00:15:07.820Z,19.88
2023-04-06T00:16:30.467Z,19.58
2023-04-06T00:17:51.453Z,21.10
2023-04-06T00:19:12.003Z,20.08
2023-04-06T00:20:32.561Z,18.95
2023-04-06T00:21:53.224Z,19.77
2023-04-06T00:23:14.077Z,18.67
2023-04-06T00:24:34.816Z,18.85
2023-04-06T00:25:56.905Z,18.83
2023-04-06T00:27:17.295Z,18.73
2023-04-06T00:28:38.098Z,19.80
2023-04-06T00:29:58.491Z,18.83
2023-04-06T00:31:19.198Z,18.52
2023-04-06T00:32:39.895Z,18.93
2023-04-06T00:34:00.539Z,19.30
2023-04-06T00:35:21.787Z,18.45
2023-04-06T00:36:42.250Z,18.30
2023-04-06T00:38:02.894Z,19.13
2023-04-06T00:39:23.577Z,18.30
2023-04-06T00:40:44.898Z,19.08
2023-04-06T00:42:10.976Z,19.15
2023-04-06T00:43:32.006Z,17.90
2023-04-06T00:44:53.788Z,18.15
2023-04-06T00:46:14.707Z,17.75
2023-04-06T00:47:35.326Z,18.95
2023-04-06T00:48:56.033Z,17.35
2023-04-06T00:50:16.705Z,18.15
2023-04-06T00:51:37.657Z,18.95
2023-04-06T00:52:59.058Z,18.05
2023-04-06T00:54:19.807Z,17.90
2023-04-06T00:55:40.362Z,18.05
2023-04-06T00:57:01.003Z,16.85
2023-04-06T00:58:23.000Z,17.38
2023-04-06T00:59:43.919Z,17.75
2023-04-06T01:01:07.774Z,17.98
2023-04-06T01:02:28.748Z,17.10
2023-04-06T01:03:49.827Z,16.43
2023-04-06T01:05:10.585Z,16.30
2023-04-06T01:06:31.459Z,17.13
2023-04-06T01:07:51.859Z,16.50
2023-04-06T01:09:12.765Z,18.52
2023-04-06T01:10:33.170Z,17.55
2023-04-06T01:11:53.605Z,16.10
2023-04-06T01:13:14.281Z,17.45
2023-04-06T01:14:36.223Z,18.65
2023-04-06T01:15:57.077Z,17.80
2023-04-06T01:17:17.929Z,16.33
2023-04-06T01:18:38.808Z,16.08
2023-04-06T01:19:59.226Z,16.70
2023-04-06T01:21:20.049Z,16.23
2023-04-06T01:22:42.067Z,17.02
2023-04-06T01:24:02.349Z,16.63
2023-04-06T01:25:22.989Z,16.33
2023-04-06T01:26:43.914Z,15.68
2023-04-06T01:29:25.001Z,16.13
2023-04-06T01:30:45.765Z,17.17
2023-04-06T01:32:06.417Z,15.80
2023-04-06T01:33:27.031Z,16.80
2023-04-06T01:34:47.633Z,15.68
2023-04-06T01:36:08.773Z,17.08
2023-04-06T01:37:29.476Z,15.38
2023-04-06T01:38:51.326Z,15.52
2023-04-06T01:40:12.367Z,16.75
2023-04-06T01:41:32.651Z,15.38
2023-04-06T01:42:53.102Z,15.93
2023-04-06T01:44:13.990Z,15.98
2023-04-06T01:45:34.653Z,16.43
2023-04-06T01:46:55.637Z,16.77
2023-04-06T01:48:16.232Z,16.57
2023-04-06T01:49:36.917Z,17.02
2023-04-06T01:50:57.514Z,15.88
2023-04-06T01:52:19.218Z,15.93
2023-04-06T01:53:40.051Z,16.15
2023-04-06T01:55:02.118Z,16.15
2023-04-06T01:56:22.916Z,16.75
2023-04-06T01:57:43.662Z,16.25
2023-04-06T01:59:04.396Z,16.65
2023-04-06T02:00:27.239Z,17.23
2023-04-06T02:01:47.740Z,18.05
2023-04-06T02:03:08.343Z,16.77
2023-04-06T02:04:29.400Z,16.95
2023-04-06T02:05:50.134Z,17.52
2023-04-06T02:07:10.917Z,16.52
2023-04-06T02:08:31.787Z,16.83
2023-04-06T02:09:55.677Z,18.08
2023-04-06T02:11:17.742Z,17.42
2023-04-06T02:12:38.577Z,16.90
2023-04-06T02:13:59.411Z,17.83
2023-04-06T02:15:20.000Z,18.10
2023-04-06T02:16:40.509Z,17.80
2023-04-06T02:18:01.177Z,18.87
2023-04-06T02:19:21.768Z,18.42
2023-04-06T02:20:42.305Z,17.02
2023-04-06T02:22:02.912Z,17.83
2023-04-06T02:23:23.751Z,18.05
2023-04-06T02:24:44.256Z,16.70
2023-04-06T02:26:05.008Z,17.92
2023-04-06T02:27:27.121Z,17.38
2023-04-06T02:28:47.804Z,18.17
2023-04-06T02:30:09.359Z,17.85
2023-04-06T02:31:29.777Z,18.65
2023-04-06T02:32:50.201Z,18.88
2023-04-06T02:34:10.683Z,17.90
2023-04-06T02:35:32.256Z,19.13
2023-04-06T02:36:53.140Z,17.52
2023-04-06T02:38:13.844Z,18.47
2023-04-06T02:39:34.395Z,19.80
2023-04-06T02:40:55.216Z,18.70
2023-04-06T02:42:16.056Z,18.88
2023-04-06T02:43:38.227Z,18.35
2023-04-06T02:44:58.596Z,19.67
2023-04-06T02:46:19.048Z,18.05
2023-04-06T02:47:39.738Z,19.50
2023-04-06T02:49:00.832Z,19.02
2023-04-06T02:50:21.541Z,19.05
2023-04-06T02:51:42.210Z,20.17
2023-04-06T02:53:02.989Z,18.70
2023-04-06T02:54:23.758Z,19.63
2023-04-06T02:55:44.342Z,19.23
2023-04-06T02:57:04.939Z,19.67
2023-04-06T02:58:25.814Z,19.65
2023-04-06T02:59:47.962Z,20.38
2023-04-06T03:01:08.551Z,19.33
2023-04-06T03:02:29.511Z,19.65
2023-04-06T03:03:50.266Z,18.85
2023-04-06T03:05:10.948Z,18.63
2023-04-06T03:06:31.710Z,19.38
2023-04-06T03:07:52.376Z,18.98
2023-04-06T03:09:13.515Z,19.65
2023-04-06T03:10:34.115Z,19.17
2023-04-06T03:11:54.841Z,20.35
2023-04-06T03:13:15.658Z,19.80
2023-04-06T03:14:36.203Z,19.35
2023-04-06T03:15:58.569Z,19.63
2023-04-06T03:17:19.183Z,20.17
2023-04-06T03:18:39.720Z,20.48
2023-04-06T03:20:00.398Z,20.23
2023-04-06T03:21:21.108Z,19.73
2023-04-06T03:22:41.832Z,21.25
2023-04-06T03:24:02.496Z,19.80
2023-04-06T03:25:23.464Z,18.83
2023-04-06T03:26:44.056Z,20.35
2023-04-06T03:28:04.883Z,21.52
2023-04-06T03:29:25.543Z,20.75
2023-04-06T03:30:46.623Z,20.63
2023-04-06T03:32:09.944Z,20.40
2023-04-06T03:33:31.464Z,20.58
2023-04-06T03:34:52.167Z,20.50
2023-04-06T03:36:12.847Z,19.90
2023-04-06T03:37:33.811Z,21.02
2023-04-06T03:38:54.538Z,21.05
2023-04-06T03:40:15.306Z,20.48
2023-04-06T03:41:36.061Z,21.20
2023-04-06T03:42:56.778Z,21.10
2023-04-06T03:44:17.449Z,21.02
2023-04-06T03:45:38.065Z,21.27
2023-04-06T03:46:58.873Z,21.65
2023-04-06T03:48:20.863Z,21.88
2023-04-06T03:49:41.361Z,20.30
2023-04-06T03:51:02.092Z,20.65
2023-04-06T03:52:22.721Z,22.38
2023-04-06T03:53:43.322Z,21.17
2023-04-06T03:55:04.555Z,21.55
2023-04-06T03:56:24.868Z,22.05
2023-04-06T03:57:45.537Z,20.63
2023-04-06T03:59:06.445Z,23.05
2023-04-06T04:00:27.804Z,21.30
2023-04-06T04:01:48.664Z,21.75
2023-04-06T04:03:09.450Z,21.33
2023-04-06T04:04:31.779Z,22.23
2023-04-06T04:05:52.910Z,21.90
2023-04-06T04:07:13.846Z,21.95
2023-04-06T04:08:34.607Z,22.15
2023-04-06T04:09:55.366Z,20.95
2023-04-06T04:11:16.182Z,22.07
2023-04-06T04:12:36.869Z,21.97
2023-04-06T04:13:57.791Z,22.70
2023-04-06T04:15:18.436Z,21.50
2023-04-06T04:16:39.194Z,22.23
2023-04-06T04:17:59.810Z,21.67
2023-04-06T04:19:20.375Z,22.63
2023-04-06T04:20:42.421Z,22.37
2023-04-06T04:22:02.920Z,22.38
2023-04-06T04:23:23.785Z,22.23
2023-04-06T04:24:44.302Z,23.13
2023-04-06T04:26:05.121Z,22.63
2023-04-06T04:27:25.823Z,22.58
2023-04-06T04:28:46.447Z,23.95
2023-04-06T04:30:08.310Z,23.48
2023-04-06T04:31:28.932Z,24.75
2023-04-06T04:32:49.850Z,24.23
2023-04-06T04:34:10.618Z,24.92
2023-04-06T04:35:30.970Z,25.75
2023-04-06T04:36:53.681Z,25.35
2023-04-06T04:38:14.140Z,24.58
2023-04-06T04:39:34.841Z,26.90
2023-04-06T04:40:55.472Z,25.27
2023-04-06T04:42:15.986Z,26.65
2023-04-06T04:43:36.646Z,25.02
2023-04-06T04:44:57.187Z,26.60
2023-04-06T04:46:18.018Z,26.30
2023-04-06T04:47:38.869Z,24.70
2023-04-06T04:48:59.424Z,25.83
2023-04-06T04:50:19.939Z,26.40
2023-04-06T04:51:40.624Z,26.27
2023-04-06T04:53:02.603Z,25.17
2023-04-06T04:54:25.309Z,26.70
2023-04-06T04:55:46.197Z,27.35
2023-04-06T04:57:06.806Z,28.40
2023-04-06T04:58:27.501Z,25.33
2023-04-06T04:59:47.971Z,26.88
2023-04-06T05:01:09.068Z,28.60
2023-04-06T05:02:29.687Z,27.30
2023-04-06T05:03:50.428Z,27.70
2023-04-06T05:05:11.458Z,28.05
2023-04-06T05:06:32.321Z,28.38
2023-04-06T05:07:53.085Z,29.10
2023-04-06T05:09:15.691Z,27.17
2023-04-06T05:10:36.096Z,28.48
2023-04-06T05:11:57.294Z,30.02
2023-04-06T05:13:18.048Z,29.42
2023-04-06T05:14:38.604Z,29.55
2023-04-06T05:15:59.435Z,28.83
2023-04-06T05:17:20.165Z,29.45
2023-04-06T05:18:40.821Z,29.98
2023-04-06T05:20:01.396Z,27.98
2023-04-06T05:21:21.981Z,28.83
2023-04-06T05:22:42.649Z,30.43
2023-04-06T05:24:03.292Z,29.92
2023-04-06T05:25:25.566Z,30.20
2023-04-06T05:26:46.278Z,30.38
2023-04-06T05:28:07.226Z,30.90
2023-04-06T05:29:27.847Z,30.95
2023-04-06T05:30:48.570Z,31.67
2023-04-06T05:32:09.148Z,33.03
2023-04-06T05:33:29.819Z,30.83
2023-04-06T05:34:50.620Z,30.37
2023-04-06T05:36:13.075Z,31.63
2023-04-06T05:37:35.282Z,31.38
2023-04-06T05:38:55.981Z,31.67
2023-04-06T05:40:16.774Z,33.53
2023-04-06T05:41:38.617Z,33.88
2023-04-06T05:42:59.566Z,34.45
2023-04-06T05:44:20.299Z,34.35
2023-04-06T05:45:40.772Z,33.28
2023-04-06T05:47:01.619Z,34.72
2023-04-06T05:48:21.957Z,35.50
2023-04-06T05:49:43.042Z,37.08
2023-04-06T05:51:03.546Z,36.20
2023-04-06T05:52:27.243Z,36.05
2023-04-06T05:53:47.707Z,38.22
2023-04-06T05:55:10.579Z,36.63
2023-04-06T05:56:30.991Z,37.92
2023-04-06T05:57:55.540Z,36.22
2023-04-06T05:59:16.327Z,37.55
2023-04-06T06:00:37.075Z,37.80
2023-04-06T06:01:57.882Z,37.83
2023-04-06T06:03:19.895Z,38.63
2023-04-06T06:04:40.645Z,38.63
2023-04-06T06:06:01.570Z,39.72
2023-04-06T06:07:21.878Z,38.30
2023-04-06T06:08:42.405Z,37.22
2023-04-06T06:10:03.150Z,38.55
2023-04-06T06:11:23.868Z,38.85
2023-04-06T06:12:44.663Z,38.00
2023-04-06T06:14:06.654Z,37.90
2023-04-06T06:15:27.448Z,39.35
2023-04-06T06:16:47.880Z,37.23
2023-04-06T06:18:08.569Z,39.27
2023-04-06T06:19:29.313Z,38.10
2023-04-06T06:20:49.925Z,38.83
2023-04-06T06:22:10.555Z,38.63
2023-04-06T06:23:31.124Z,38.63
2023-04-06T06:24:51.925Z,38.05
2023-04-06T06:26:12.686Z,37.47
2023-04-06T06:27:33.559Z,38.70
2023-04-06T06:28:54.579Z,35.53
2023-04-06T06:30:17.269Z,37.95
2023-04-06T06:31:37.882Z,36.20
2023-04-06T06:32:58.518Z,35.45
2023-04-06T06:34:19.241Z,36.05
2023-04-06T06:35:40.050Z,35.90
2023-04-06T06:37:00.893Z,34.88
2023-04-06T06:38:23.613Z,36.75
2023-04-06T06:39:44.933Z,36.72
2023-04-06T06:41:05.385Z,35.35
2023-04-06T06:42:26.106Z,35.90
2023-04-06T06:43:46.895Z,37.15
2023-04-06T06:45:09.117Z,37.40
2023-04-06T06:46:30.945Z,36.03
2023-04-06T06:47:54.381Z,35.63
2023-04-06T06:49:15.682Z,33.58
2023-04-06T06:50:36.544Z,36.78
2023-04-06T06:51:57.194Z,35.60
2023-04-06T06:53:17.886Z,35.93
2023-04-06T06:54:38.605Z,33.80
2023-04-06T06:55:59.260Z,34.60
2023-04-06T06:57:19.987Z,33.70
2023-04-06T06:58:40.696Z,34.58
2023-04-06T07:00:01.392Z,34.95
2023-04-06T07:01:22.214Z,35.03
2023-04-06T07:02:44.407Z,35.22
2023-04-06T07:04:05.390Z,33.00
2023-04-06T07:05:28.106Z,34.50
2023-04-06T07:06:50.171Z,33.28
2023-04-06T07:08:11.073Z,33.40
2023-04-06T07:09:31.865Z,34.47
2023-04-06T07:10:53.766Z,34.90
2023-04-06T07:12:14.427Z,35.95
2023-04-06T07:13:35.124Z,34.97
2023-04-06T07:14:56.043Z,33.77
2023-04-06T07:16:16.500Z,34.25
2023-04-06T07:17:37.214Z,35.75
2023-04-06T07:18:59.349Z,35.90
2023-04-06T07:20:20.140Z,34.25
2023-04-06T07:21:40.859Z,36.47
2023-04-06T07:23:01.673Z,34.38
2023-04-06T07:24:22.342Z,33.60
2023-04-06T07:25:43.102Z,33.20
2023-04-06T07:27:04.012Z,33.08
2023-04-06T07:28:27.291Z,32.28
2023-04-06T07:29:47.754Z,30.70
2023-04-06T07:31:08.499Z,29.85
2023-04-06T07:32:29.146Z,32.33
2023-04-06T07:33:49.768Z,30.77
2023-04-06T07:35:11.951Z,29.42
2023-04-06T07:36:32.631Z,30.17
2023-04-06T07:37:53.687Z,32.42
2023-04-06T07:39:14.146Z,30.20
2023-04-06T07:40:35.053Z,30.90
2023-04-06T07:41:55.741Z,30.17
2023-04-06T07:43:16.928Z,32.10
2023-04-06T07:44:37.737Z,29.92
2023-04-06T07:45:58.367Z,30.33
2023-04-06T07:47:19.153Z,29.27
2023-04-06T07:48:39.759Z,30.17
2023-04-06T07:50:00.461Z,29.83
2023-04-06T07:51:22.605Z,29.85
2023-04-06T07:52:43.594Z,29.42
2023-04-06T07:54:04.317Z,30.45
2023-04-06T07:55:27.800Z,30.90
2023-04-06T07:56:48.049Z,30.92
2023-04-06T07:58:09.007Z,32.35
2023-04-06T07:59:30.258Z,34.00
2023-04-06T08:00:50.786Z,33.42
2023-04-06T08:02:11.517Z,33.63
2023-04-06T08:03:34.982Z,34.85
2023-04-06T08:04:56.135Z,34.88
2023-04-06T08:06:16.945Z,36.35
2023-04-06T08:07:39.094Z,37.15
2023-04-06T08:08:59.576Z,33.50
2023-04-06T08:10:20.268Z,36.77
2023-04-06T08:11:40.864Z,38.00
2023-04-06T08:13:01.645Z,37.70
2023-04-06T08:14:22.263Z,38.08
2023-04-06T08:15:42.924Z,40.03
2023-04-06T08:17:04.095Z,41.60
2023-04-06T08:18:26.651Z,36.67
2023-04-06T08:19:47.595Z,37.00
2023-04-06T08:21:07.908Z,38.83
2023-04-06T08:22:28.738Z,37.25
2023-04-06T08:23:51.280Z,38.38
2023-04-06T08:25:12.202Z,35.45
2023-04-06T08:26:33.210Z,35.92
2023-04-06T08:27:53.939Z,38.67
2023-04-06T08:29:14.829Z,37.15
2023-04-06T08:30:35.505Z,39.20
2023-04-06T08:31:56.168Z,38.80
2023-04-06T08:33:16.821Z,41.00
2023-04-06T08:34:37.621Z,40.28
2023-04-06T08:35:58.444Z,36.50
2023-04-06T08:37:19.131Z,35.42
2023-04-06T08:38:40.419Z,36.70
2023-04-06T08:40:02.396Z,38.28
2023-04-06T08:41:23.043Z,38.80
2023-04-06T08:42:48.466Z,38.08
2023-04-06T08:44:09.128Z,34.17
2023-04-06T08:46:50.639Z,35.97
2023-04-06T08:48:13.223Z,34.67
2023-04-06T08:49:35.036Z,34.80
2023-04-06T08:50:56.048Z,35.05
2023-04-06T08:52:19.267Z,35.05
2023-04-06T08:53:40.517Z,30.88
2023-04-06T08:55:02.699Z,33.03
2023-04-06T08:56:23.941Z,34.92
2023-04-06T08:57:44.345Z,30.35
2023-04-06T08:59:05.145Z,32.20
2023-04-06T09:00:27.228Z,31.95
2023-04-06T09:01:48.215Z,33.75
2023-04-06T09:03:09.409Z,34.65
2023-04-06T09:04:30.215Z,30.75
2023-04-06T09:05:51.539Z,29.70
2023-04-06T09:07:11.925Z,28.58
2023-04-06T09:08:33.141Z,27.83
2023-04-06T09:09:53.662Z,28.02
2023-04-06T09:11:16.259Z,26.20
2023-04-06T09:12:36.810Z,23.88
2023-04-06T09:13:57.478Z,21.13
2023-04-06T09:15:24.746Z,23.15
2023-04-06T09:16:46.908Z,21.80
2023-04-06T09:18:07.907Z,23.10
2023-04-06T09:19:28.382Z,20.10
2023-04-06T09:20:58.460Z,19.77
2023-04-06T09:22:19.688Z,20.02
2023-04-06T09:23:40.726Z,19.98
2023-04-06T09:25:01.219Z,19.13
2023-04-06T09:26:25.922Z,20.33
2023-04-06T09:27:46.669Z,19.13
2023-04-06T09:29:07.610Z,19.67
2023-04-06T09:30:28.150Z,21.63
2023-04-06T09:31:48.728Z,19.17
2023-04-06T09:33:09.222Z,20.92
2023-04-06T09:34:29.839Z,19.90
2023-04-06T09:35:51.064Z,20.42
2023-04-06T09:38:35.575Z,18.70
2023-04-06T09:40:03.796Z,18.73
2023-04-06T09:41:27.325Z,21.73
2023-04-06T09:42:48.915Z,20.50
2023-04-06T09:44:11.082Z,21.42
2023-04-06T09:45:31.922Z,22.10
2023-04-06T09:47:00.884Z,22.25
2023-04-06T09:48:22.623Z,21.38
2023-04-06T09:49:43.502Z,23.33
2023-04-06T09:51:07.035Z,22.13
2023-04-06T09:52:31.691Z,21.08
2023-04-06T09:53:53.817Z,20.83
2023-04-06T09:55:18.840Z,21.00
2023-04-06T09:56:47.289Z,22.58
2023-04-06T09:58:11.069Z,21.00
2023-04-06T09:59:39.205Z,20.88
2023-04-06T10:01:04.173Z,21.85
2023-04-06T10:02:33.442Z,21.27
2023-04-06T10:04:01.338Z,20.38
2023-04-06T10:05:27.047Z,21.35
2023-04-06T10:06:48.305Z,19.33
2023-04-06T10:08:10.844Z,21.08
2023-04-06T10:09:31.880Z,19.15
2023-04-06T10:10:52.209Z,21.40
2023-04-06T10:12:14.394Z,19.92
2023-04-06T10:13:34.949Z,19.48
2023-04-06T10:14:55.731Z,20.48
2023-04-06T10:16:17.300Z,20.10
2023-04-06T10:17:37.852Z,20.65
2023-04-06T10:19:01.354Z,20.25
2023-04-06T10:20:25.476Z,22.25
2023-04-06T10:21:49.585Z,19.65
2023-04-06T10:23:12.204Z,21.35
2023-04-06T10:24:32.605Z,20.48
2023-04-06T10:25:54.212Z,20.67
2023-04-06T10:27:16.318Z,20.73
2023-04-06T10:28:37.345Z,22.10
2023-04-06T10:30:02.620Z,20.60
2023-04-06T10:31:26.558Z,20.95
2023-04-06T10:32:48.202Z,19.27
2023-04-06T10:34:09.469Z,21.15
2023-04-06T10:35:38.162Z,21.20
2023-04-06T10:36:58.962Z,21.85
2023-04-06T10:38:20.895Z,22.02
2023-04-06T10:42:39.416Z,22.77
2023-04-06T10:44:00.722Z,24.20
2023-04-06T10:45:25.063Z,23.00
2023-04-06T10:46:53.843Z,24.67
2023-04-06T10:48:14.930Z,24.38
2023-04-06T10:49:35.669Z,25.63
2023-04-06T10:50:56.659Z,25.45
2023-04-06T10:52:17.268Z,25.17
2023-04-06T10:53:38.225Z,24.45
2023-04-06T10:54:59.327Z,23.98
2023-04-06T10:56:23.171Z,24.05
2023-04-06T10:57:47.531Z,26.30
2023-04-06T10:59:08.261Z,27.50
2023-04-06T11:00:36.343Z,24.73
2023-04-06T11:02:04.046Z,26.73
2023-04-06T11:03:24.976Z,23.20
2023-04-06T11:04:55.333Z,22.45
2023-04-06T11:06:22.783Z,22.67
2023-04-06T11:07:45.699Z,24.60
2023-04-06T11:09:06.242Z,24.10
2023-04-06T11:10:27.112Z,23.90
2023-04-06T11:11:54.549Z,22.60
2023-04-06T11:13:16.710Z,24.20
2023-04-06T11:14:37.178Z,24.15
2023-04-06T11:15:57.829Z,24.63
2023-04-06T11:17:18.313Z,25.75
2023-04-06T11:18:39.284Z,23.60
2023-04-06T11:20:00.876Z,23.23
2023-04-06T11:21:35.282Z,23.92
2023-04-06T11:22:56.416Z,25.80
2023-04-06T11:24:18.371Z,23.00
2023-04-06T11:26:59.659Z,24.33
2023-04-06T11:28:22.228Z,25.48
2023-04-06T11:29:43.463Z,24.48
2023-04-06T11:31:04.077Z,24.25
2023-04-06T11:32:24.901Z,26.33
2023-04-06T11:33:45.466Z,25.95
2023-04-06T11:35:07.004Z,27.08
2023-04-06T11:36:28.710Z,25.40
2023-04-06T11:37:49.865Z,25.65
2023-04-06T11:39:10.663Z,24.67
2023-04-06T11:40:31.437Z,23.92
2023-04-06T11:41:52.843Z,22.90
2023-04-06T11:43:13.394Z,23.20
2023-04-06T11:44:36.444Z,24.98
2023-04-06T11:46:03.650Z,23.50
2023-04-06T11:47:29.108Z,25.38
2023-04-06T11:48:50.034Z,24.50
2023-04-06T11:50:13.864Z,26.45
2023-04-06T11:51:37.287Z,22.85
2023-04-06T11:53:01.648Z,20.98
2023-04-06T11:54:31.526Z,22.55
2023-04-06T11:55:52.178Z,23.20
2023-04-06T11:57:13.120Z,24.02
2023-04-06T11:58:33.998Z,22.17
2023-04-06T11:59:56.463Z,21.85
2023-04-06T12:01:17.160Z,22.00
2023-04-06T12:02:37.804Z,22.70
2023-04-06T12:03:58.552Z,23.30
2023-04-06T12:05:19.444Z,22.00
2023-04-06T12:06:40.206Z,22.73
2023-04-06T12:08:02.751Z,22.73
2023-04-06T12:09:24.450Z,23.00
2023-04-06T12:10:45.337Z,20.83
2023-04-06T12:12:05.890Z,20.50
2023-04-06T12:13:26.419Z,21.05
2023-04-06T12:14:47.086Z,20.30
2023-04-06T12:16:09.007Z,22.23
2023-04-06T12:17:29.266Z,20.48
2023-04-06T12:18:50.098Z,20.10
2023-04-06T12:20:22.554Z,22.83
2023-04-06T12:21:46.465Z,24.17
2023-04-06T12:23:07.191Z,24.13
2023-04-06T12:24:28.704Z,19.27
2023-04-06T12:25:49.842Z,22.27
2023-04-06T12:27:11.065Z,21.63
2023-04-06T12:28:31.611Z,20.95
2023-04-06T12:29:52.056Z,20.83
2023-04-06T12:31:17.238Z,21.17
2023-04-06T12:32:37.968Z,20.83
2023-04-06T12:33:58.610Z,21.30
2023-04-06T12:35:19.510Z,21.13
2023-04-06T12:36:42.790Z,21.40
2023-04-06T12:38:03.330Z,21.15
2023-04-06T12:39:24.408Z,21.50
2023-04-06T12:40:45.138Z,22.92
2023-04-06T12:42:06.049Z,21.88
2023-04-06T12:43:26.815Z,23.63
2023-04-06T12:44:47.498Z,22.30
2023-04-06T12:46:08.303Z,21.23
2023-04-06T12:47:30.506Z,23.25
2023-04-06T12:48:52.341Z,21.38
2023-04-06T12:50:13.292Z,22.02
2023-04-06T12:51:33.756Z,22.25
2023-04-06T12:52:54.574Z,23.67
2023-04-06T12:54:15.934Z,20.50
2023-04-06T12:55:36.271Z,23.15
2023-04-06T12:56:57.041Z,25.30
2023-04-06T12:58:17.698Z,21.52
2023-04-06T12:59:38.578Z,20.42
2023-04-06T13:00:59.263Z,24.15
2023-04-06T13:02:19.777Z,22.13
2023-04-06T13:03:42.184Z,20.80
2023-04-06T13:05:02.641Z,22.05
2023-04-06T13:06:23.093Z,22.45
2023-04-06T13:07:43.665Z,21.42
2023-04-06T13:09:04.296Z,20.33
2023-04-06T13:10:28.205Z,22.55
2023-04-06T13:11:49.000Z,21.42
2023-04-06T13:13:09.625Z,20.83
2023-04-06T13:14:30.344Z,20.03
2023-04-06T13:15:51.258Z,22.23
2023-04-06T13:17:11.798Z,23.30
2023-04-06T13:18:32.644Z,21.23
2023-04-06T13:19:57.284Z,21.17
2023-04-06T13:21:18.032Z,21.55
2023-04-06T13:22:39.041Z,19.70
2023-04-06T13:23:59.529Z,18.88
2023-04-06T13:25:20.379Z,17.48
2023-04-06T13:26:40.800Z,16.83
2023-04-06T13:28:01.344Z,18.30
2023-04-06T13:29:24.736Z,19.88
2023-04-06T13:30:49.304Z,18.02
2023-04-06T13:32:10.053Z,19.52
2023-04-06T13:33:31.766Z,21.17
2023-04-06T13:34:55.621Z,21.40
2023-04-06T13:36:17.939Z,20.98
2023-04-06T13:37:39.458Z,20.15
2023-04-06T13:39:00.393Z,20.52
2023-04-06T13:40:21.023Z,23.50
2023-04-06T13:41:41.859Z,24.10
2023-04-06T13:43:02.379Z,22.53
2023-04-06T13:44:22.771Z,24.95
2023-04-06T13:45:50.166Z,22.17
2023-04-06T13:47:11.143Z,23.67
2023-04-06T13:48:31.818Z,23.63
2023-04-06T13:49:53.781Z,23.13
2023-04-06T13:51:15.054Z,25.75
2023-04-06T13:53:56.521Z,26.13
2023-04-06T13:55:16.865Z,28.08
2023-04-06T13:56:37.336Z,26.88
2023-04-06T13:57:58.251Z,27.30
2023-04-06T13:59:18.951Z,20.42
2023-04-06T14:00:39.678Z,24.20
2023-04-06T14:02:00.664Z,25.45
2023-04-06T14:03:22.059Z,23.50
2023-04-06T14:04:42.400Z,24.40
2023-04-06T14:07:35.858Z,25.77
2023-04-06T14:08:56.401Z,21.13
2023-04-06T14:10:17.457Z,21.88
2023-04-06T14:11:38.104Z,22.00
2023-04-06T14:12:58.580Z,22.75
2023-04-06T14:14:19.326Z,23.83
2023-04-06T14:15:40.196Z,23.48
2023-04-06T14:17:00.683Z,26.17
2023-04-06T14:18:21.481Z,23.98
2023-04-06T14:19:42.322Z,25.40
2023-04-06T14:21:04.674Z,24.77
2023-04-06T14:22:25.328Z,21.33
2023-04-06T14:23:46.265Z,23.63
2023-04-06T14:25:08.330Z,21.85
2023-04-06T14:26:28.472Z,25.05
2023-04-06T14:27:49.049Z,22.42
2023-04-06T14:29:09.966Z,21.63
2023-04-06T14:30:31.231Z,22.00
2023-04-06T14:31:51.990Z,24.25
2023-04-06T14:33:12.962Z,23.77
2023-04-06T14:34:33.741Z,26.70
2023-04-06T14:35:56.507Z,25.00
2023-04-06T14:37:18.132Z,23.85
2023-04-06T14:38:38.818Z,25.67
2023-04-06T14:39:59.403Z,24.65
2023-04-06T14:41:23.432Z,25.10
2023-04-06T14:42:43.835Z,24.77
2023-04-06T14:44:04.357Z,27.35
2023-04-06T14:45:27.716Z,25.23
2023-04-06T14:46:48.280Z,23.88
2023-04-06T14:48:09.050Z,23.73
2023-04-06T14:49:29.763Z,23.70
2023-04-06T14:50:53.963Z,24.20
2023-04-06T14:52:14.794Z,23.55
2023-04-06T14:53:36.728Z,24.88
2023-04-06T14:54:57.043Z,22.77
2023-04-06T14:56:20.937Z,25.85
2023-04-06T14:57:41.342Z,25.65
2023-04-06T14:59:02.191Z,24.87
2023-04-06T15:00:22.644Z,26.80
2023-04-06T15:01:43.454Z,27.58
2023-04-06T15:03:04.170Z,26.58
2023-04-06T15:04:27.344Z,26.42
2023-04-06T15:05:48.039Z,25.10
2023-04-06T15:07:08.724Z,25.40
2023-04-06T15:08:29.403Z,27.53
2023-04-06T15:09:51.275Z,27.48
2023-04-06T15:11:12.221Z,28.50
2023-04-06T15:12:32.877Z,25.15
2023-04-06T15:13:53.491Z,23.45
2023-04-06T15:15:14.230Z,27.35
2023-04-06T15:16:34.836Z,29.63
2023-04-06T15:17:55.219Z,23.75
2023-04-06T15:19:15.575Z,25.92
2023-04-06T15:20:36.326Z,26.40
2023-04-06T15:21:58.142Z,24.05
2023-04-06T15:23:19.828Z,22.85
2023-04-06T15:24:40.366Z,22.73
2023-04-06T15:26:02.448Z,23.85
2023-04-06T15:27:22.873Z,19.05
2023-04-06T15:28:43.497Z,24.30
2023-04-06T15:30:04.573Z,25.65
2023-04-06T15:31:36.818Z,28.80
2023-04-06T15:33:00.420Z,27.35
2023-04-06T15:34:21.433Z,26.85
2023-04-06T15:35:41.896Z,28.05
2023-04-06T15:37:02.538Z,30.27
2023-04-06T15:38:23.360Z,27.07
2023-04-06T15:39:43.911Z,30.95
2023-04-06T15:41:05.734Z,24.73
2023-04-06T15:42:26.489Z,26.02
2023-04-06T15:43:47.336Z,27.80
2023-04-06T15:45:08.651Z,24.38
2023-04-06T15:46:29.374Z,26.05
2023-04-06T15:47:49.857Z,25.15
2023-04-06T15:49:10.346Z,27.88
2023-04-06T15:50:30.627Z,24.73
2023-04-06T15:51:51.932Z,26.13
2023-04-06T15:53:12.266Z,32.15
2023-04-06T15:54:33.121Z,31.25
2023-04-06T15:55:58.902Z,28.50
2023-04-06T15:57:21.046Z,28.25
2023-04-06T15:58:42.193Z,28.27
2023-04-06T16:00:03.677Z,26.13
2023-04-06T16:01:24.016Z,33.15
2023-04-06T16:02:45.044Z,26.38
2023-04-06T16:04:07.302Z,31.70
2023-04-06T16:05:31.123Z,30.75
2023-04-06T16:06:53.763Z,30.63
2023-04-06T16:08:15.097Z,29.65
2023-04-06T16:09:35.485Z,32.20
2023-04-06T16:10:56.036Z,27.42
2023-04-06T16:12:16.890Z,32.15
2023-04-06T16:13:39.586Z,33.70
2023-04-06T16:15:00.563Z,34.13
2023-04-06T16:16:21.321Z,33.60
2023-04-06T16:17:42.165Z,33.15
2023-04-06T16:19:02.521Z,30.98
2023-04-06T16:20:23.606Z,33.47
2023-04-06T16:21:44.199Z,32.55
2023-04-06T16:23:05.156Z,35.88
2023-04-06T16:24:25.753Z,35.35
2023-04-06T16:25:46.419Z,35.27
2023-04-06T16:27:06.811Z,32.25
2023-04-06T16:28:27.314Z,33.70
2023-04-06T16:29:49.019Z,33.75
2023-04-06T16:31:18.011Z,37.38
2023-04-06T16:32:38.484Z,32.83
2023-04-06T16:33:59.059Z,38.63
2023-04-06T16:35:20.039Z,35.25
2023-04-06T16:36:41.032Z,36.38
2023-04-06T16:38:01.453Z,35.88
2023-04-06T16:39:22.121Z,36.22
2023-04-06T16:40:42.560Z,40.42
2023-04-06T16:42:03.222Z,40.38
2023-04-06T16:43:23.948Z,45.33
2023-04-06T16:44:44.641Z,40.05
2023-04-06T16:46:06.909Z,47.28
2023-04-06T16:47:27.766Z,39.65
2023-04-06T16:48:48.438Z,42.05
2023-04-06T16:50:10.320Z,43.17
2023-04-06T16:51:31.066Z,39.45
2023-04-06T16:52:51.846Z,45.13
2023-04-06T16:54:12.255Z,39.85
2023-04-06T16:55:32.723Z,40.80
2023-04-06T16:56:53.400Z,37.60
2023-04-06T16:58:13.973Z,39.10
2023-04-06T16:59:35.233Z,40.70
2023-04-06T17:00:55.541Z,43.40
2023-04-06T17:02:17.639Z,39.57
2023-04-06T17:03:38.189Z,44.47
2023-04-06T17:05:00.465Z,40.50
2023-04-06T17:06:21.068Z,46.05
2023-04-06T17:07:41.661Z,52.28
2023-04-06T17:09:02.431Z,48.28
2023-04-06T17:10:32.856Z,54.37
2023-04-06T17:11:54.654Z,53.15
2023-04-06T17:13:15.063Z,43.22
2023-04-06T17:14:35.922Z,50.10
2023-04-06T17:15:56.257Z,46.58
2023-04-06T17:17:18.238Z,55.00
2023-04-06T17:18:39.834Z,46.38
2023-04-06T17:20:00.381Z,45.75
2023-04-06T17:21:21.011Z,47.88
2023-04-06T17:22:41.861Z,48.22
2023-04-06T17:24:02.332Z,56.23
2023-04-06T17:25:23.118Z,47.05
2023-04-06T17:26:43.625Z,46.67
2023-04-06T17:28:04.102Z,49.55
2023-04-06T17:29:24.296Z,46.70
2023-04-06T17:30:45.177Z,43.67
2023-04-06T17:32:05.978Z,47.25
2023-04-06T17:33:28.410Z,51.90
2023-04-06T17:34:48.971Z,49.60
2023-04-06T17:36:09.772Z,45.13
2023-04-06T17:37:31.572Z,48.15
2023-04-06T17:38:52.286Z,49.50